createdAt,value
2017-03-28T18:40:38.232Z,14.82
2017-03-28T18:41:38.911Z,14.79
2017-03-28T18:42:39.600Z,14.79
2017-03-28T18:43:40.314Z,14.7
2017-03-28T18:44:40.976Z,14.69
2017-03-28T18:45:41.648Z,14.62
2017-03-28T18:46:42.376Z,14.54
2017-03-28T18:47:43.067Z,14.51
2017-03-28T18:48:43.722Z,14.59
2017-03-28T18:49:44.652Z,14.55
2017-03-28T18:50:45.319Z,14.53
2017-03-28T18:51:45.992Z,14.45
2017-03-28T18:52:46.664Z,14.53
2017-03-28T18:53:47.333Z,14.45
2017-03-28T18:54:48.010Z,14.48
2017-03-28T18:55:48.686Z,14.35
2017-03-28T18:56:49.363Z,14.41
2017-03-28T18:57:50.036Z,14.4
2017-03-28T18:58:50.690Z,14.35
2017-03-28T18:59:51.383Z,14.29
2017-03-28T19:00:52.060Z,14.33
2017-03-28T19:01:52.717Z,14.33
2017-03-28T19:02:53.371Z,14.3
2017-03-28T19:03:54.043Z,14.35
2017-03-28T19:04:54.753Z,14.32
2017-03-28T19:05:55.411Z,14.35
2017-03-28T19:06:56.089Z,14.25
2017-03-28T19:07:56.756Z,14.3
2017-03-28T19:08:57.474Z,14.2
2017-03-28T19:09:58.158Z,14.2
2017-03-28T19:10:58.829Z,14.12
2017-03-28T19:11:59.499Z,14.11
2017-03-28T19:13:00.177Z,14.15
2017-03-28T19:14:00.883Z,14.1
2017-03-28T19:15:01.569Z,14.12
2017-03-28T19:16:02.295Z,14.05
2017-03-28T19:17:02.968Z,14.05
2017-03-28T19:18:03.638Z,13.93
2017-03-28T19:19:04.356Z,14.04
2017-03-28T19:20:05.029Z,14.03
2017-03-28T19:21:05.721Z,13.95
2017-03-28T19:22:06.419Z,13.86
2017-03-28T19:23:07.094Z,13.93
2017-03-28T19:24:07.782Z,13.92
2017-03-28T19:25:08.475Z,13.86
2017-03-28T19:26:09.192Z,13.96
2017-03-28T19:27:10.343Z,13.87
2017-03-28T19:28:10.952Z,13.87
2017-03-28T19:29:11.772Z,13.83
2017-03-28T19:30:13.575Z,13.86
2017-03-28T19:31:15.525Z,13.86
2017-03-28T19:32:17.383Z,13.78
2017-03-28T19:33:18.206Z,13.74
2017-03-28T19:34:18.878Z,13.75
2017-03-28T19:35:19.801Z,13.74
2017-03-28T19:36:20.507Z,13.77
2017-03-28T19:37:21.234Z,13.72
2017-03-28T19:38:21.934Z,13.72
2017-03-28T19:39:22.710Z,13.62
2017-03-28T19:40:23.427Z,13.68
2017-03-28T19:41:24.101Z,13.68
2017-03-28T19:42:25.242Z,13.63
2017-03-28T19:43:25.958Z,13.6
2017-03-28T19:44:26.648Z,13.53
2017-03-28T19:45:27.879Z,13.62
2017-03-28T19:46:30.122Z,13.54
2017-03-28T19:47:30.982Z,13.47
2017-03-28T19:48:31.676Z,13.49
2017-03-28T19:49:32.398Z,13.5
2017-03-28T19:50:33.148Z,13.52
2017-03-28T19:51:33.952Z,13.42
2017-03-28T19:52:34.629Z,13.47
2017-03-28T19:53:35.436Z,13.41
2017-03-28T19:54:36.139Z,13.35
2017-03-28T19:55:36.890Z,13.35
2017-03-28T19:56:37.582Z,13.23
2017-03-28T19:57:39.083Z,13.38
2017-03-28T19:58:39.762Z,13.39
2017-03-28T19:59:40.491Z,13.31
2017-03-28T20:00:41.418Z,13.33
2017-03-28T20:01:43.367Z,13.37
2017-03-28T20:02:44.632Z,13.23
2017-03-28T20:03:45.404Z,13.31
2017-03-28T20:04:46.135Z,13.22
2017-03-28T20:05:46.840Z,13.35
2017-03-28T20:06:47.532Z,13.16
2017-03-28T20:07:48.348Z,13.19
2017-03-28T20:08:49.050Z,13.16
2017-03-28T20:09:49.743Z,13.16
2017-03-28T20:10:50.499Z,13.19
2017-03-28T20:11:51.184Z,13.08
2017-03-28T20:12:51.893Z,13.15
2017-03-28T20:13:52.572Z,13.11
2017-03-28T20:14:53.258Z,13.13
2017-03-28T20:15:54.032Z,13.08
2017-03-28T20:16:54.833Z,13.16
2017-03-28T20:17:55.548Z,13.18
2017-03-28T20:18:56.244Z,13.09
2017-03-28T20:19:56.961Z,13.09
2017-03-28T20:20:57.638Z,13.15
2017-03-28T20:21:58.484Z,13.09
2017-03-28T20:22:59.069Z,12.97
2017-03-28T20:23:59.794Z,12.97
2017-03-28T20:25:00.490Z,12.98
2017-03-28T20:26:01.237Z,13.03
2017-03-28T20:27:01.946Z,13.03
2017-03-28T20:28:03.262Z,13.05
2017-03-28T20:29:04.015Z,13.01
2017-03-28T20:30:04.662Z,12.97
2017-03-28T20:31:05.370Z,12.95
2017-03-28T20:32:06.169Z,12.9
2017-03-28T20:33:08.141Z,12.95
2017-03-28T20:34:08.792Z,12.93
2017-03-28T20:35:11.413Z,12.94
2017-03-28T20:36:13.469Z,12.91
2017-03-28T20:37:13.503Z,12.9
2017-03-28T20:38:14.498Z,13
2017-03-28T20:39:15.171Z,12.85
2017-03-28T20:40:15.853Z,12.83
2017-03-28T20:41:16.549Z,12.91
2017-03-28T20:42:17.230Z,12.97
2017-03-28T20:43:18.112Z,12.94
2017-03-28T20:44:18.814Z,12.97
2017-03-28T20:45:21.036Z,12.91
2017-03-28T20:46:21.854Z,12.82
2017-03-28T20:47:22.825Z,12.87
2017-03-28T20:48:24.145Z,12.86
2017-03-28T20:49:24.877Z,12.82
2017-03-28T20:50:26.467Z,12.76
2017-03-28T20:51:27.537Z,12.76
2017-03-28T20:52:28.206Z,12.85
2017-03-28T20:53:29.268Z,12.8
2017-03-28T20:54:30.236Z,12.73
2017-03-28T20:55:31.990Z,12.7
2017-03-28T20:56:35.194Z,12.72
2017-03-28T20:57:37.900Z,12.75
2017-03-28T20:58:38.575Z,12.7
2017-03-28T20:59:39.255Z,12.73
2017-03-28T21:00:40.505Z,12.78
2017-03-28T21:01:41.115Z,12.67
2017-03-28T21:02:41.816Z,12.7
2017-03-28T21:03:42.713Z,12.7
2017-03-28T21:04:43.431Z,12.65
2017-03-28T21:05:45.586Z,12.64
2017-03-28T21:06:46.262Z,12.65
2017-03-28T21:07:47.860Z,12.62
2017-03-28T21:08:48.986Z,12.61
2017-03-28T21:09:49.889Z,12.53
2017-03-28T21:10:50.601Z,12.54
2017-03-28T21:11:51.325Z,12.5
2017-03-28T21:12:52.011Z,12.53
2017-03-28T21:13:52.731Z,12.53
2017-03-28T21:14:53.438Z,12.55
2017-03-28T21:15:54.208Z,12.54
2017-03-28T21:16:54.900Z,12.54
2017-03-28T21:17:55.585Z,12.47
2017-03-28T21:18:56.380Z,12.46
2017-03-28T21:19:57.077Z,12.35
2017-03-28T21:20:57.765Z,12.49
2017-03-28T21:21:58.452Z,12.4
2017-03-28T21:22:59.268Z,12.4
2017-03-28T21:23:59.978Z,12.43
2017-03-28T21:25:00.700Z,12.43
2017-03-28T21:26:01.400Z,12.36
2017-03-28T21:27:02.069Z,12.32
2017-03-28T21:28:02.753Z,12.39
2017-03-28T21:29:03.483Z,12.32
2017-03-28T21:30:04.222Z,12.35
2017-03-28T21:31:05.769Z,12.35
2017-03-28T21:32:06.617Z,12.31
2017-03-28T21:33:08.351Z,12.25
